createdAt,value
2023-07-04T00:00:28.071Z,12.18
2023-07-04T00:03:30.642Z,15.10
2023-07-04T00:06:33.794Z,12.25
2023-07-04T00:09:35.531Z,14.90
2023-07-04T00:12:38.468Z,16.35
2023-07-04T00:15:45.142Z,12.70
2023-07-04T00:18:46.900Z,13.13
2023-07-04T00:21:49.966Z,12.25
2023-07-04T00:24:51.691Z,15.35
2023-07-04T00:27:53.397Z,16.25
2023-07-04T00:30:56.354Z,12.57
2023-07-04T00:33:58.209Z,12.70
2023-07-04T00:37:01.402Z,17.70
2023-07-04T00:40:03.495Z,13.43
2023-07-04T00:43:05.762Z,14.90
2023-07-04T00:46:08.707Z,17.30
2023-07-04T00:49:17.818Z,16.55
2023-07-04T00:52:24.208Z,18.13
2023-07-04T00:55:26.602Z,15.98
2023-07-04T00:58:28.288Z,15.25
2023-07-04T01:01:30.051Z,12.80
2023-07-04T01:04:33.474Z,14.48
2023-07-04T01:07:42.547Z,14.23
2023-07-04T01:10:47.293Z,15.38
2023-07-04T01:13:49.161Z,13.50
2023-07-04T01:16:51.438Z,12.95
2023-07-04T01:19:53.971Z,11.30
2023-07-04T01:23:05.971Z,11.43
2023-07-04T01:26:26.183Z,13.10
2023-07-04T01:29:27.979Z,9.50
2023-07-04T01:32:29.861Z,14.13
2023-07-04T01:35:31.625Z,11.50
2023-07-04T01:38:33.639Z,13.18
2023-07-04T01:41:36.740Z,11.98
2023-07-04T01:44:38.512Z,11.98
2023-07-04T01:47:40.852Z,11.30
2023-07-04T01:50:42.575Z,11.93
2023-07-04T01:53:44.289Z,12.88
2023-07-04T01:56:49.776Z,10.55
2023-07-04T01:59:52.074Z,11.93
2023-07-04T02:02:53.848Z,10.85
2023-07-04T02:05:57.959Z,13.27
2023-07-04T02:08:59.637Z,11.30
2023-07-04T02:12:02.737Z,12.23
2023-07-04T02:15:05.546Z,12.00
2023-07-04T02:18:08.575Z,14.10
2023-07-04T02:21:10.329Z,13.88
2023-07-04T02:24:12.081Z,11.60
2023-07-04T02:27:15.289Z,14.45
2023-07-04T02:30:17.074Z,15.43
2023-07-04T02:33:18.804Z,14.88
2023-07-04T02:36:20.900Z,15.90
2023-07-04T02:39:22.869Z,11.05
2023-07-04T02:42:25.950Z,13.38
2023-07-04T02:45:27.726Z,15.15
2023-07-04T02:48:29.480Z,14.10
2023-07-04T02:51:31.170Z,11.20
2023-07-04T02:54:32.890Z,12.82
2023-07-04T02:57:35.989Z,11.05
2023-07-04T03:00:37.714Z,13.65
2023-07-04T03:03:39.502Z,13.52
2023-07-04T03:06:41.376Z,12.57
2023-07-04T03:09:43.111Z,13.77
2023-07-04T03:12:46.295Z,10.90
2023-07-04T03:15:48.048Z,12.43
2023-07-04T03:18:50.274Z,12.02
2023-07-04T03:21:52.019Z,13.15
2023-07-04T03:24:53.764Z,16.75
2023-07-04T03:27:56.863Z,10.80
2023-07-04T03:30:58.589Z,12.15
2023-07-04T03:34:00.363Z,13.70
2023-07-04T03:37:02.050Z,12.43
2023-07-04T03:40:04.892Z,12.48
2023-07-04T03:43:07.979Z,18.35
2023-07-04T03:46:09.703Z,11.63
2023-07-04T03:49:11.398Z,13.73
2023-07-04T03:52:13.190Z,13.45
2023-07-04T03:55:14.900Z,14.85
2023-07-04T03:58:18.361Z,12.48
2023-07-04T04:01:22.096Z,12.27
2023-07-04T04:04:23.928Z,13.10
2023-07-04T04:07:26.412Z,12.98
2023-07-04T04:10:28.177Z,14.45
2023-07-04T04:13:33.753Z,13.40
2023-07-04T04:16:36.295Z,16.42
2023-07-04T04:19:41.252Z,14.90
2023-07-04T04:22:44.573Z,15.20
2023-07-04T04:25:49.028Z,14.50
2023-07-04T04:28:54.819Z,14.23
2023-07-04T04:31:57.674Z,17.00
2023-07-04T04:35:02.169Z,12.32
2023-07-04T04:38:03.902Z,14.07
2023-07-04T04:41:07.580Z,13.93
2023-07-04T04:44:12.467Z,13.13
2023-07-04T04:47:16.238Z,11.98
2023-07-04T04:50:18.002Z,11.35
2023-07-04T04:53:21.152Z,14.55
2023-07-04T04:56:23.731Z,12.57
2023-07-04T04:59:26.823Z,11.35
2023-07-04T05:02:30.705Z,17.52
2023-07-04T05:05:32.781Z,13.07
2023-07-04T05:08:35.441Z,15.43
2023-07-04T05:11:37.622Z,13.07
2023-07-04T05:14:40.709Z,10.65
2023-07-04T05:17:42.915Z,13.65
2023-07-04T05:20:45.515Z,10.48
2023-07-04T05:23:49.307Z,13.48
2023-07-04T05:26:51.484Z,13.07
2023-07-04T05:29:57.036Z,12.88
2023-07-04T05:32:59.054Z,11.50
2023-07-04T05:36:06.888Z,11.48
2023-07-04T05:39:09.419Z,10.88
2023-07-04T05:42:11.602Z,15.98
2023-07-04T05:45:15.607Z,9.90
2023-07-04T05:48:20.158Z,8.75
2023-07-04T05:51:25.047Z,11.10
2023-07-04T05:54:26.988Z,11.38
2023-07-04T05:57:31.187Z,9.73
2023-07-04T06:00:35.518Z,9.27
2023-07-04T06:03:41.622Z,8.70
2023-07-04T06:06:45.899Z,7.43
2023-07-04T06:09:47.638Z,9.38
2023-07-04T06:12:49.391Z,9.88
2023-07-04T06:15:53.064Z,7.60
2023-07-04T06:18:55.371Z,10.48
2023-07-04T06:21:58.123Z,8.82
2023-07-04T06:25:00.716Z,8.20
2023-07-04T06:28:02.799Z,10.23
2023-07-04T06:31:13.882Z,9.55
2023-07-04T06:34:15.881Z,6.90
2023-07-04T06:37:20.966Z,8.35
2023-07-04T06:40:22.771Z,9.27
2023-07-04T06:43:25.668Z,7.22
2023-07-04T06:46:32.340Z,6.53
2023-07-04T06:49:36.922Z,6.85
2023-07-04T06:52:39.394Z,9.70
2023-07-04T06:55:42.260Z,9.95
2023-07-04T06:58:47.744Z,8.15
2023-07-04T07:01:51.255Z,7.03
2023-07-04T07:04:53.791Z,8.70
2023-07-04T07:07:55.568Z,6.13
2023-07-04T07:10:59.112Z,6.82
2023-07-04T07:14:01.748Z,6.32
2023-07-04T07:17:06.150Z,6.22
2023-07-04T07:20:08.930Z,7.75
2023-07-04T07:23:14.882Z,5.47
2023-07-04T07:26:20.207Z,7.00
2023-07-04T07:29:26.899Z,6.10
2023-07-04T07:32:30.232Z,4.82
2023-07-04T07:35:32.579Z,6.55
2023-07-04T07:38:34.272Z,5.93
2023-07-04T07:41:39.559Z,8.30
2023-07-04T07:44:41.579Z,8.38
2023-07-04T07:47:44.752Z,5.82
2023-07-04T07:50:48.243Z,8.18
2023-07-04T07:53:51.468Z,6.63
2023-07-04T07:56:53.291Z,6.70
2023-07-04T07:59:55.766Z,5.70
2023-07-04T08:02:59.131Z,5.80
2023-07-04T08:06:02.122Z,6.45
2023-07-04T08:09:07.364Z,7.20
2023-07-04T08:12:09.209Z,6.57
2023-07-04T08:15:11.391Z,6.13
2023-07-04T08:18:16.858Z,6.43
2023-07-04T08:21:19.338Z,9.98
2023-07-04T08:24:25.255Z,10.50
2023-07-04T08:27:30.075Z,9.30
2023-07-04T08:30:33.318Z,7.45
2023-07-04T08:33:36.981Z,7.07
2023-07-04T08:36:39.702Z,5.75
2023-07-04T08:39:42.054Z,6.35
2023-07-04T08:42:47.422Z,6.68
2023-07-04T08:45:49.984Z,6.00
2023-07-04T08:48:54.132Z,6.25
2023-07-04T08:52:01.030Z,6.10
2023-07-04T08:55:03.161Z,4.13
2023-07-04T08:58:04.928Z,4.60
2023-07-04T09:01:17.900Z,9.45
2023-07-04T09:04:31.995Z,4.57
2023-07-04T09:07:41.209Z,6.07
2023-07-04T09:13:50.762Z,2.90
2023-07-04T09:16:55.523Z,5.47
2023-07-04T09:20:02.515Z,4.32
2023-07-04T09:23:11.967Z,5.47
2023-07-04T09:26:18.650Z,5.82
2023-07-04T09:29:22.977Z,6.88
2023-07-04T09:32:26.042Z,10.55
2023-07-04T09:35:29.779Z,4.70
2023-07-04T09:38:51.280Z,6.28
2023-07-04T09:42:13.136Z,4.07
2023-07-04T09:45:24.257Z,5.18
2023-07-04T09:48:26.407Z,4.50
2023-07-04T09:51:31.483Z,3.92
2023-07-04T09:54:36.827Z,4.47
2023-07-04T09:57:43.074Z,3.80
2023-07-04T10:00:46.478Z,2.97
2023-07-04T10:03:49.597Z,4.07
2023-07-04T10:06:56.321Z,4.75
2023-07-04T10:10:03.547Z,3.45
2023-07-04T10:13:08.396Z,3.15
2023-07-04T10:16:21.315Z,4.38
2023-07-04T10:19:24.565Z,3.63
2023-07-04T10:22:32.633Z,5.28
2023-07-04T10:25:37.816Z,3.97
2023-07-04T10:28:40.055Z,5.65
2023-07-04T10:31:42.917Z,5.55
2023-07-04T10:34:48.058Z,4.03
2023-07-04T10:37:56.033Z,3.25
2023-07-04T10:40:59.898Z,3.97
2023-07-04T10:44:06.630Z,3.35
2023-07-04T10:47:13.103Z,2.58
2023-07-04T10:50:20.302Z,3.25
2023-07-04T10:53:24.325Z,3.83
2023-07-04T10:56:31.302Z,2.30
2023-07-04T10:59:39.661Z,1.98
2023-07-04T11:02:46.986Z,3.42
2023-07-04T11:05:54.965Z,2.10
2023-07-04T11:08:59.732Z,2.22
2023-07-04T11:12:04.105Z,2.95
2023-07-04T11:15:19.964Z,3.60
2023-07-04T11:18:25.105Z,2.55
2023-07-04T11:21:27.189Z,2.20
2023-07-04T11:24:34.442Z,3.10
2023-07-04T11:27:36.535Z,3.47
2023-07-04T11:30:42.345Z,2.78
2023-07-04T11:34:01.925Z,2.97
2023-07-04T11:37:05.015Z,2.08
2023-07-04T11:40:21.594Z,4.55
2023-07-04T11:43:26.920Z,2.22
2023-07-04T11:46:32.250Z,3.42
2023-07-04T11:49:37.594Z,2.08
2023-07-04T11:52:43.351Z,2.45
2023-07-04T11:56:05.791Z,2.63
2023-07-04T11:59:47.132Z,2.28
2023-07-04T12:02:50.120Z,3.33
2023-07-04T12:05:55.287Z,2.22
2023-07-04T12:08:59.728Z,2.13
2023-07-04T12:12:07.001Z,3.38
2023-07-04T12:15:12.385Z,4.70
2023-07-04T12:18:17.795Z,1.55
2023-07-04T12:21:21.186Z,1.50
2023-07-04T12:24:25.133Z,2.85
2023-07-04T12:27:29.476Z,2.70
2023-07-04T12:33:39.823Z,2.05
2023-07-04T12:36:42.170Z,1.90
2023-07-04T12:39:48.446Z,1.80
2023-07-04T12:42:53.394Z,2.20
2023-07-04T12:52:27.921Z,1.83
2023-07-04T12:55:33.607Z,2.80
2023-07-04T12:58:40.794Z,1.63
2023-07-04T13:01:43.350Z,1.45
2023-07-04T13:04:45.275Z,2.05
2023-07-04T13:07:50.820Z,1.45
2023-07-04T13:10:56.163Z,3.65
2023-07-04T13:14:07.201Z,1.50
2023-07-04T13:17:12.580Z,1.65
2023-07-04T13:20:17.972Z,1.00
2023-07-04T13:26:28.590Z,1.30
2023-07-04T13:35:44.657Z,1.73
2023-07-04T13:41:56.283Z,4.72
2023-07-04T13:48:06.692Z,1.65
2023-07-04T13:51:08.781Z,1.73
2023-07-04T13:54:11.976Z,2.25
2023-07-04T13:57:14.438Z,2.55
2023-07-04T14:00:24.172Z,1.52
2023-07-04T14:06:34.301Z,1.38
2023-07-04T14:09:38.626Z,2.20
2023-07-04T14:12:40.626Z,3.60
2023-07-04T14:22:04.480Z,4.10
2023-07-04T14:25:07.093Z,1.55
2023-07-04T14:28:11.236Z,1.73
2023-07-04T14:31:16.867Z,1.75
2023-07-04T14:34:18.985Z,2.03
2023-07-04T14:37:21.073Z,2.50
2023-07-04T14:43:27.501Z,2.03
2023-07-04T14:46:31.176Z,1.35
2023-07-04T14:49:32.918Z,1.55
2023-07-04T14:52:37.776Z,3.97
2023-07-04T14:55:40.174Z,2.97
2023-07-04T14:58:43.683Z,1.55
2023-07-04T15:01:48.180Z,5.65
2023-07-04T15:04:50.917Z,1.88
2023-07-04T15:07:53.390Z,2.15
2023-07-04T15:10:55.470Z,5.07
2023-07-04T15:14:01.626Z,3.70
2023-07-04T15:17:07.599Z,3.03
2023-07-04T15:20:11.268Z,2.20
2023-07-04T15:23:14.332Z,1.67
2023-07-04T15:26:26.107Z,3.75
2023-07-04T15:29:29.394Z,3.08
2023-07-04T15:32:32.720Z,5.78
2023-07-04T15:35:34.765Z,3.28
2023-07-04T15:38:36.974Z,2.90
2023-07-04T15:41:40.898Z,1.73
2023-07-04T15:44:42.874Z,3.45
2023-07-04T15:47:47.917Z,3.85
2023-07-04T15:50:50.088Z,2.55
2023-07-04T15:53:52.058Z,2.72
2023-07-04T15:56:55.810Z,1.50
2023-07-04T15:59:59.205Z,2.85
2023-07-04T16:03:03.571Z,2.75
2023-07-04T16:06:10.766Z,3.58
2023-07-04T16:09:14.329Z,1.60
2023-07-04T16:12:16.175Z,2.00
2023-07-04T16:15:21.040Z,3.55
2023-07-04T16:18:25.504Z,2.80
2023-07-04T16:21:27.599Z,2.42
2023-07-04T16:24:30.274Z,2.60
2023-07-04T16:27:32.730Z,2.05
2023-07-04T16:30:35.166Z,4.15
2023-07-04T16:33:39.546Z,3.17
2023-07-04T16:36:41.716Z,3.75
2023-07-04T16:39:43.889Z,1.75
2023-07-04T16:42:46.436Z,1.30
2023-07-04T16:45:51.000Z,2.05
2023-07-04T16:48:57.321Z,2.65
2023-07-04T16:52:01.701Z,5.13
2023-07-04T16:55:04.279Z,1.90
2023-07-04T16:58:07.692Z,2.83
2023-07-04T17:01:09.485Z,3.63
2023-07-04T17:04:13.910Z,1.60
2023-07-04T17:07:18.279Z,4.43
2023-07-04T17:10:21.205Z,3.80
2023-07-04T17:16:30.069Z,2.38
2023-07-04T17:19:35.789Z,1.77
2023-07-04T17:22:40.376Z,2.47
2023-07-04T17:25:46.239Z,3.50
2023-07-04T17:28:48.066Z,2.22
2023-07-04T17:31:50.759Z,2.72
2023-07-04T17:34:56.976Z,2.30
2023-07-04T17:38:00.859Z,1.67
2023-07-04T17:41:04.791Z,2.60
2023-07-04T17:44:07.946Z,2.22
2023-07-04T17:47:10.986Z,3.70
2023-07-04T17:50:18.690Z,2.58
2023-07-04T17:53:22.091Z,2.30
2023-07-04T17:56:26.090Z,2.38
2023-07-04T17:59:29.342Z,3.33
2023-07-04T18:02:32.784Z,3.60
2023-07-04T18:05:38.298Z,6.55
2023-07-04T18:08:43.727Z,6.18
2023-07-04T18:11:47.162Z,5.50
2023-07-04T18:14:53.408Z,3.55
2023-07-04T18:17:57.263Z,3.50
2023-07-04T18:21:07.759Z,2.70
2023-07-04T18:24:13.387Z,2.47
2023-07-04T18:27:17.053Z,1.60
2023-07-04T18:30:19.741Z,2.97
2023-07-04T18:33:22.602Z,2.75
2023-07-04T18:36:28.851Z,1.52
2023-07-04T18:39:31.842Z,5.85
2023-07-04T18:42:37.640Z,2.03
2023-07-04T18:45:45.420Z,2.85
2023-07-04T18:48:50.454Z,3.47
2023-07-04T18:51:55.249Z,2.38
2023-07-04T18:54:58.548Z,3.10
2023-07-04T18:58:01.987Z,2.70
2023-07-04T19:01:12.808Z,2.85
2023-07-04T19:04:17.464Z,4.95
2023-07-04T19:07:22.720Z,2.65
2023-07-04T19:10:27.770Z,1.95
2023-07-04T19:13:34.316Z,1.98
2023-07-04T19:16:40.026Z,2.97
2023-07-04T19:19:45.071Z,2.08
2023-07-04T19:22:53.820Z,4.38
2023-07-04T19:25:57.815Z,3.17
2023-07-04T19:29:01.477Z,1.95
2023-07-04T19:32:06.291Z,2.50
2023-07-04T19:35:11.306Z,2.33
2023-07-04T19:38:26.055Z,2.15
2023-07-04T19:41:31.467Z,1.98
2023-07-04T19:44:38.770Z,2.55
2023-07-04T19:47:42.742Z,2.63
2023-07-04T19:50:46.591Z,4.50
2023-07-04T19:53:54.294Z,3.35
2023-07-04T19:57:10.974Z,2.60
2023-07-04T20:00:16.758Z,2.38
2023-07-04T20:03:21.139Z,2.92
2023-07-04T20:06:25.562Z,3.00
2023-07-04T20:09:31.099Z,1.67
2023-07-04T20:12:34.723Z,1.80
2023-07-04T20:15:42.798Z,2.60
2023-07-04T20:18:46.584Z,3.03
2023-07-04T20:21:50.450Z,2.22
2023-07-04T20:24:56.037Z,1.70
2023-07-04T20:28:01.971Z,3.47
2023-07-04T20:31:06.884Z,2.28
2023-07-04T20:34:12.510Z,2.40
2023-07-04T20:37:18.864Z,2.38
2023-07-04T20:40:23.612Z,1.77
2023-07-04T20:43:26.833Z,3.63
2023-07-04T20:46:29.369Z,2.40
2023-07-04T20:49:32.045Z,1.88
2023-07-04T20:52:34.117Z,2.95
2023-07-04T20:55:38.774Z,2.58
2023-07-04T20:58:43.111Z,1.85
2023-07-04T21:01:45.230Z,2.70
2023-07-04T21:04:52.316Z,3.40
2023-07-04T21:07:56.543Z,3.13
2023-07-04T21:11:02.584Z,4.03
2023-07-04T21:14:04.757Z,2.60
2023-07-04T21:17:07.652Z,2.35
2023-07-04T21:20:10.087Z,3.22
2023-07-04T21:23:12.230Z,2.38
2023-07-04T21:26:15.566Z,2.40
2023-07-04T21:29:18.820Z,3.13
2023-07-04T21:32:22.372Z,2.20
2023-07-04T21:35:24.200Z,3.63
2023-07-04T21:38:26.188Z,2.17
2023-07-04T21:41:31.616Z,2.45
2023-07-04T21:44:35.970Z,2.47
2023-07-04T21:47:39.006Z,2.67
2023-07-04T21:50:41.093Z,3.63
2023-07-04T21:53:43.388Z,2.72
2023-07-04T21:56:46.690Z,3.38
2023-07-04T21:59:49.849Z,2.30
2023-07-04T22:02:51.985Z,2.63
2023-07-04T22:06:01.797Z,2.53
2023-07-04T22:09:04.055Z,3.22
2023-07-04T22:12:08.718Z,3.03
2023-07-04T22:15:11.624Z,2.10
2023-07-04T22:18:14.076Z,2.53
2023-07-04T22:21:16.896Z,3.28
2023-07-04T22:24:18.651Z,2.10
2023-07-04T22:27:22.900Z,1.88
2023-07-04T22:30:26.941Z,4.05
2023-07-04T22:33:31.113Z,3.92
2023-07-04T22:36:35.939Z,2.17
2023-07-04T22:39:37.809Z,4.90
2023-07-04T22:42:43.286Z,3.17
2023-07-04T22:45:49.083Z,3.72
2023-07-04T22:48:51.672Z,3.45
2023-07-04T22:51:54.333Z,3.15
2023-07-04T22:54:56.068Z,2.50
2023-07-04T22:58:00.161Z,2.70
2023-07-04T23:01:07.602Z,4.93
2023-07-04T23:04:09.349Z,1.60
2023-07-04T23:07:11.328Z,2.80
2023-07-04T23:10:13.103Z,4.43
2023-07-04T23:13:16.252Z,3.95
2023-07-04T23:16:20.385Z,2.20
2023-07-04T23:19:22.332Z,3.85
2023-07-04T23:22:24.045Z,3.75
2023-07-04T23:25:28.517Z,4.18
2023-07-04T23:28:35.208Z,3.85
2023-07-04T23:31:37.008Z,3.75
2023-07-04T23:34:38.721Z,3.03
2023-07-04T23:37:41.186Z,3.70
2023-07-04T23:40:43.347Z,6.40
2023-07-04T23:43:47.038Z,3.47
2023-07-04T23:46:49.079Z,3.25
2023-07-04T23:49:51.025Z,2.55
2023-07-04T23:52:52.995Z,2.75
2023-07-04T23:55:56.231Z,4.78
2023-07-04T23:58:59.685Z,3.00
